sensor_id;sensor_type;location;lat;lon;timestamp;P1;durP1;ratioP1;P2;durP2;ratioP2
74124;SDS011;62475;52.192;5.396;2023-09-12T00:01:42;82.47;;;33.97;;
74124;SDS011;62475;52.192;5.396;2023-09-12T00:04:08;59.03;;;30.63;;
74124;SDS011;62475;52.192;5.396;2023-09-12T00:06:33;69.80;;;31.57;;
74124;SDS011;62475;52.192;5.396;2023-09-12T00:08:58;61.42;;;29.13;;
74124;SDS011;62475;52.192;5.396;2023-09-12T00:11:24;73.17;;;32.33;;
74124;SDS011;62475;52.192;5.396;2023-09-12T00:13:50;74.88;;;32.15;;
74124;SDS011;62475;52.192;5.396;2023-09-12T00:16:16;71.57;;;31.90;;
74124;SDS011;62475;52.192;5.396;2023-09-12T00:18:41;61.40;;;30.77;;
74124;SDS011;62475;52.192;5.396;2023-09-12T00:21:07;61.00;;;30.58;;
74124;SDS011;62475;52.192;5.396;2023-09-12T00:23:32;67.10;;;29.70;;
74124;SDS011;62475;52.192;5.396;2023-09-12T00:25:57;56.23;;;29.23;;
74124;SDS011;62475;52.192;5.396;2023-09-12T00:28:23;47.88;;;26.30;;
74124;SDS011;62475;52.192;5.396;2023-09-12T00:30:48;61.83;;;27.98;;
74124;SDS011;62475;52.192;5.396;2023-09-12T00:33:13;41.30;;;24.97;;
74124;SDS011;62475;52.192;5.396;2023-09-12T00:35:39;42.47;;;23.73;;
74124;SDS011;62475;52.192;5.396;2023-09-12T00:38:04;56.87;;;27.30;;
74124;SDS011;62475;52.192;5.396;2023-09-12T00:40:31;55.28;;;27.65;;
74124;SDS011;62475;52.192;5.396;2023-09-12T00:42:57;44.00;;;23.55;;
74124;SDS011;62475;52.192;5.396;2023-09-12T00:45:23;49.38;;;26.90;;
74124;SDS011;62475;52.192;5.396;2023-09-12T00:47:49;46.40;;;26.20;;
74124;SDS011;62475;52.192;5.396;2023-09-12T00:50:15;45.75;;;25.17;;
74124;SDS011;62475;52.192;5.396;2023-09-12T00:52:41;44.08;;;25.30;;
74124;SDS011;62475;52.192;5.396;2023-09-12T00:55:07;49.15;;;26.58;;
74124;SDS011;62475;52.192;5.396;2023-09-12T00:57:33;45.45;;;25.25;;
74124;SDS011;62475;52.192;5.396;2023-09-12T00:59:59;51.15;;;28.20;;
74124;SDS011;62475;52.192;5.396;2023-09-12T01:02:26;56.13;;;28.10;;
74124;SDS011;62475;52.192;5.396;2023-09-12T01:04:51;59.60;;;29.67;;
74124;SDS011;62475;52.192;5.396;2023-09-12T01:07:17;64.53;;;31.77;;
74124;SDS011;62475;52.192;5.396;2023-09-12T01:09:42;67.90;;;31.63;;
74124;SDS011;62475;52.192;5.396;2023-09-12T01:12:07;73.78;;;31.58;;
74124;SDS011;62475;52.192;5.396;2023-09-12T01:14:33;62.15;;;30.25;;
74124;SDS011;62475;52.192;5.396;2023-09-12T01:16:58;64.47;;;31.47;;
74124;SDS011;62475;52.192;5.396;2023-09-12T01:19:24;72.40;;;31.08;;
74124;SDS011;62475;52.192;5.396;2023-09-12T01:21:58;73.07;;;32.47;;
74124;SDS011;62475;52.192;5.396;2023-09-12T01:29:42;56.10;;;29.08;;
74124;SDS011;62475;52.192;5.396;2023-09-12T01:32:08;70.70;;;31.52;;
74124;SDS011;62475;52.192;5.396;2023-09-12T01:34:33;67.82;;;31.35;;
74124;SDS011;62475;52.192;5.396;2023-09-12T01:36:58;70.30;;;31.27;;
74124;SDS011;62475;52.192;5.396;2023-09-12T01:39:25;70.65;;;32.80;;
74124;SDS011;62475;52.192;5.396;2023-09-12T01:41:50;66.70;;;30.90;;
74124;SDS011;62475;52.192;5.396;2023-09-12T01:44:17;71.18;;;31.42;;
74124;SDS011;62475;52.192;5.396;2023-09-12T01:46:43;70.40;;;31.73;;
74124;SDS011;62475;52.192;5.396;2023-09-12T01:49:08;80.10;;;32.92;;
74124;SDS011;62475;52.192;5.396;2023-09-12T01:51:35;60.67;;;29.23;;
74124;SDS011;62475;52.192;5.396;2023-09-12T01:54:00;57.22;;;26.73;;
74124;SDS011;62475;52.192;5.396;2023-09-12T01:56:25;66.78;;;31.33;;
74124;SDS011;62475;52.192;5.396;2023-09-12T01:58:51;64.17;;;28.60;;
74124;SDS011;62475;52.192;5.396;2023-09-12T02:01:17;70.03;;;30.20;;
74124;SDS011;62475;52.192;5.396;2023-09-12T02:03:42;61.35;;;30.75;;
74124;SDS011;62475;52.192;5.396;2023-09-12T02:06:07;58.50;;;28.83;;
74124;SDS011;62475;52.192;5.396;2023-09-12T02:08:33;48.57;;;25.73;;
74124;SDS011;62475;52.192;5.396;2023-09-12T02:10:58;65.57;;;30.80;;
74124;SDS011;62475;52.192;5.396;2023-09-12T02:13:23;70.30;;;30.83;;
74124;SDS011;62475;52.192;5.396;2023-09-12T02:15:48;42.83;;;23.47;;
74124;SDS011;62475;52.192;5.396;2023-09-12T02:18:13;61.20;;;28.07;;
74124;SDS011;62475;52.192;5.396;2023-09-12T02:20:40;56.88;;;28.98;;
74124;SDS011;62475;52.192;5.396;2023-09-12T02:23:06;60.58;;;28.90;;
74124;SDS011;62475;52.192;5.396;2023-09-12T02:25:31;54.95;;;26.90;;
74124;SDS011;62475;52.192;5.396;2023-09-12T02:27:56;57.77;;;29.17;;
74124;SDS011;62475;52.192;5.396;2023-09-12T02:30:21;72.67;;;31.83;;
74124;SDS011;62475;52.192;5.396;2023-09-12T02:32:47;68.50;;;30.83;;
74124;SDS011;62475;52.192;5.396;2023-09-12T02:35:12;69.90;;;32.27;;
74124;SDS011;62475;52.192;5.396;2023-09-12T02:37:37;47.50;;;26.33;;
74124;SDS011;62475;52.192;5.396;2023-09-12T02:40:03;41.60;;;23.63;;
74124;SDS011;62475;52.192;5.396;2023-09-12T02:42:30;46.58;;;24.65;;
74124;SDS011;62475;52.192;5.396;2023-09-12T02:44:55;56.03;;;28.90;;
74124;SDS011;62475;52.192;5.396;2023-09-12T02:47:21;62.87;;;31.80;;
74124;SDS011;62475;52.192;5.396;2023-09-12T02:49:47;58.20;;;29.10;;
74124;SDS011;62475;52.192;5.396;2023-09-12T02:52:12;60.53;;;29.67;;
74124;SDS011;62475;52.192;5.396;2023-09-12T02:54:38;64.32;;;30.70;;
74124;SDS011;62475;52.192;5.396;2023-09-12T02:57:04;67.10;;;30.53;;
74124;SDS011;62475;52.192;5.396;2023-09-12T02:59:29;72.63;;;32.47;;
74124;SDS011;62475;52.192;5.396;2023-09-12T03:01:55;70.25;;;32.22;;
74124;SDS011;62475;52.192;5.396;2023-09-12T03:04:20;66.13;;;29.57;;
74124;SDS011;62475;52.192;5.396;2023-09-12T03:06:46;71.93;;;31.80;;
74124;SDS011;62475;52.192;5.396;2023-09-12T03:09:11;53.93;;;28.50;;
74124;SDS011;62475;52.192;5.396;2023-09-12T03:11:36;65.15;;;30.05;;
74124;SDS011;62475;52.192;5.396;2023-09-12T03:14:01;62.27;;;31.60;;
74124;SDS011;62475;52.192;5.396;2023-09-12T03:16:27;67.97;;;32.42;;
74124;SDS011;62475;52.192;5.396;2023-09-12T03:18:52;69.97;;;31.13;;
74124;SDS011;62475;52.192;5.396;2023-09-12T03:21:18;73.53;;;33.23;;
74124;SDS011;62475;52.192;5.396;2023-09-12T03:23:43;51.27;;;27.97;;
74124;SDS011;62475;52.192;5.396;2023-09-12T03:26:08;49.87;;;26.27;;
74124;SDS011;62475;52.192;5.396;2023-09-12T03:28:35;65.38;;;31.90;;
74124;SDS011;62475;52.192;5.396;2023-09-12T03:31:10;74.83;;;32.03;;
74124;SDS011;62475;52.192;5.396;2023-09-12T03:33:39;63.85;;;31.45;;
74124;SDS011;62475;52.192;5.396;2023-09-12T03:36:05;67.78;;;31.75;;
74124;SDS011;62475;52.192;5.396;2023-09-12T03:38:30;59.05;;;30.77;;
74124;SDS011;62475;52.192;5.396;2023-09-12T03:40:55;62.77;;;30.20;;
74124;SDS011;62475;52.192;5.396;2023-09-12T03:43:23;69.87;;;31.80;;
74124;SDS011;62475;52.192;5.396;2023-09-12T03:45:48;81.82;;;34.33;;
74124;SDS011;62475;52.192;5.396;2023-09-12T03:48:14;64.18;;;31.98;;
74124;SDS011;62475;52.192;5.396;2023-09-12T03:50:39;72.47;;;32.78;;
74124;SDS011;62475;52.192;5.396;2023-09-12T03:53:04;57.13;;;29.13;;
74124;SDS011;62475;52.192;5.396;2023-09-12T03:55:30;68.00;;;33.03;;
74124;SDS011;62475;52.192;5.396;2023-09-12T03:57:55;75.95;;;32.97;;
74124;SDS011;62475;52.192;5.396;2023-09-12T04:00:21;95.20;;;35.23;;
74124;SDS011;62475;52.192;5.396;2023-09-12T04:02:46;71.07;;;32.10;;
74124;SDS011;62475;52.192;5.396;2023-09-12T04:05:12;101.40;;;35.83;;
74124;SDS011;62475;52.192;5.396;2023-09-12T04:07:37;71.35;;;30.15;;
74124;SDS011;62475;52.192;5.396;2023-09-12T04:10:02;64.90;;;30.80;;
74124;SDS011;62475;52.192;5.396;2023-09-12T04:12:28;74.65;;;31.88;;
74124;SDS011;62475;52.192;5.396;2023-09-12T04:14:53;69.20;;;32.77;;
74124;SDS011;62475;52.192;5.396;2023-09-12T04:17:20;68.82;;;31.15;;
74124;SDS011;62475;52.192;5.396;2023-09-12T04:19:45;65.03;;;31.07;;
74124;SDS011;62475;52.192;5.396;2023-09-12T04:22:10;71.77;;;31.30;;
74124;SDS011;62475;52.192;5.396;2023-09-12T04:24:35;73.93;;;33.90;;
74124;SDS011;62475;52.192;5.396;2023-09-12T04:27:00;71.97;;;32.53;;
74124;SDS011;62475;52.192;5.396;2023-09-12T04:29:26;75.93;;;31.97;;
74124;SDS011;62475;52.192;5.396;2023-09-12T04:31:52;78.50;;;33.53;;
74124;SDS011;62475;52.192;5.396;2023-09-12T04:34:23;78.45;;;34.42;;
74124;SDS011;62475;52.192;5.396;2023-09-12T04:36:49;57.43;;;29.00;;
74124;SDS011;62475;52.192;5.396;2023-09-12T04:39:14;78.23;;;28.77;;
74124;SDS011;62475;52.192;5.396;2023-09-12T04:41:39;54.13;;;26.85;;
74124;SDS011;62475;52.192;5.396;2023-09-12T04:44:04;65.40;;;30.47;;
74124;SDS011;62475;52.192;5.396;2023-09-12T04:46:30;69.93;;;31.33;;
74124;SDS011;62475;52.192;5.396;2023-09-12T04:48:55;67.20;;;32.17;;
74124;SDS011;62475;52.192;5.396;2023-09-12T04:51:20;73.30;;;32.60;;
74124;SDS011;62475;52.192;5.396;2023-09-12T04:53:45;85.77;;;34.43;;
74124;SDS011;62475;52.192;5.396;2023-09-12T04:56:11;65.85;;;32.15;;
74124;SDS011;62475;52.192;5.396;2023-09-12T04:58:36;77.20;;;32.07;;
74124;SDS011;62475;52.192;5.396;2023-09-12T05:01:02;82.65;;;33.70;;
74124;SDS011;62475;52.192;5.396;2023-09-12T05:03:27;77.65;;;30.40;;
74124;SDS011;62475;52.192;5.396;2023-09-12T05:05:53;64.43;;;30.80;;
74124;SDS011;62475;52.192;5.396;2023-09-12T05:08:18;70.72;;;31.33;;
74124;SDS011;62475;52.192;5.396;2023-09-12T05:10:43;87.83;;;34.63;;
74124;SDS011;62475;52.192;5.396;2023-09-12T05:13:09;77.68;;;31.40;;
74124;SDS011;62475;52.192;5.396;2023-09-12T05:15:34;95.67;;;35.83;;
74124;SDS011;62475;52.192;5.396;2023-09-12T05:17:59;78.07;;;31.92;;
74124;SDS011;62475;52.192;5.396;2023-09-12T05:20:24;89.00;;;35.20;;
74124;SDS011;62475;52.192;5.396;2023-09-12T05:22:49;81.33;;;33.73;;
74124;SDS011;62475;52.192;5.396;2023-09-12T05:25:15;102.07;;;36.37;;
74124;SDS011;62475;52.192;5.396;2023-09-12T05:27:40;99.65;;;36.92;;
74124;SDS011;62475;52.192;5.396;2023-09-12T05:30:06;88.13;;;35.85;;
74124;SDS011;62475;52.192;5.396;2023-09-12T05:32:32;90.28;;;36.47;;
74124;SDS011;62475;52.192;5.396;2023-09-12T05:34:57;108.80;;;35.75;;
74124;SDS011;62475;52.192;5.396;2023-09-12T05:37:22;107.63;;;37.67;;
74124;SDS011;62475;52.192;5.396;2023-09-12T05:39:47;100.17;;;38.50;;
74124;SDS011;62475;52.192;5.396;2023-09-12T05:42:13;107.97;;;41.43;;
74124;SDS011;62475;52.192;5.396;2023-09-12T05:44:39;119.15;;;42.55;;
74124;SDS011;62475;52.192;5.396;2023-09-12T05:47:05;116.27;;;40.37;;
74124;SDS011;62475;52.192;5.396;2023-09-12T05:49:31;127.05;;;42.72;;
74124;SDS011;62475;52.192;5.396;2023-09-12T05:51:59;109.03;;;39.97;;
74124;SDS011;62475;52.192;5.396;2023-09-12T05:54:24;114.07;;;40.37;;
74124;SDS011;62475;52.192;5.396;2023-09-12T05:56:49;86.47;;;37.67;;
74124;SDS011;62475;52.192;5.396;2023-09-12T05:59:14;83.17;;;34.93;;
74124;SDS011;62475;52.192;5.396;2023-09-12T06:01:39;85.80;;;35.63;;
74124;SDS011;62475;52.192;5.396;2023-09-12T06:04:05;91.40;;;37.10;;
74124;SDS011;62475;52.192;5.396;2023-09-12T06:06:31;91.97;;;38.60;;
74124;SDS011;62475;52.192;5.396;2023-09-12T06:08:56;99.43;;;37.87;;
74124;SDS011;62475;52.192;5.396;2023-09-12T06:11:23;83.70;;;36.17;;
74124;SDS011;62475;52.192;5.396;2023-09-12T06:13:48;100.60;;;39.67;;
74124;SDS011;62475;52.192;5.396;2023-09-12T06:16:13;98.23;;;39.07;;
74124;SDS011;62475;52.192;5.396;2023-09-12T06:18:40;97.97;;;38.73;;
74124;SDS011;62475;52.192;5.396;2023-09-12T06:21:05;96.03;;;41.65;;
74124;SDS011;62475;52.192;5.396;2023-09-12T06:23:33;105.00;;;38.95;;
74124;SDS011;62475;52.192;5.396;2023-09-12T06:25:59;95.32;;;38.72;;
74124;SDS011;62475;52.192;5.396;2023-09-12T06:28:25;90.50;;;36.30;;
74124;SDS011;62475;52.192;5.396;2023-09-12T06:30:50;78.55;;;36.38;;
74124;SDS011;62475;52.192;5.396;2023-09-12T06:33:15;89.03;;;38.00;;
74124;SDS011;62475;52.192;5.396;2023-09-12T06:35:40;87.93;;;35.37;;
74124;SDS011;62475;52.192;5.396;2023-09-12T06:38:05;98.60;;;39.03;;
74124;SDS011;62475;52.192;5.396;2023-09-12T06:40:31;87.57;;;35.80;;
74124;SDS011;62475;52.192;5.396;2023-09-12T06:42:56;90.70;;;37.30;;
74124;SDS011;62475;52.192;5.396;2023-09-12T06:45:21;77.57;;;32.07;;
74124;SDS011;62475;52.192;5.396;2023-09-12T06:47:46;84.37;;;34.10;;
74124;SDS011;62475;52.192;5.396;2023-09-12T06:50:12;85.32;;;34.95;;
74124;SDS011;62475;52.192;5.396;2023-09-12T06:52:38;88.73;;;35.13;;
74124;SDS011;62475;52.192;5.396;2023-09-12T06:55:03;90.70;;;37.97;;
74124;SDS011;62475;52.192;5.396;2023-09-12T06:57:28;86.90;;;34.67;;
74124;SDS011;62475;52.192;5.396;2023-09-12T06:59:54;80.65;;;36.80;;
74124;SDS011;62475;52.192;5.396;2023-09-12T07:02:19;93.22;;;36.50;;
74124;SDS011;62475;52.192;5.396;2023-09-12T07:04:44;89.70;;;33.40;;
74124;SDS011;62475;52.192;5.396;2023-09-12T07:07:09;84.97;;;34.43;;
74124;SDS011;62475;52.192;5.396;2023-09-12T07:09:35;90.53;;;36.33;;
74124;SDS011;62475;52.192;5.396;2023-09-12T07:12:00;77.87;;;30.57;;
74124;SDS011;62475;52.192;5.396;2023-09-12T07:14:25;76.23;;;33.07;;
74124;SDS011;62475;52.192;5.396;2023-09-12T07:16:50;73.77;;;30.80;;
74124;SDS011;62475;52.192;5.396;2023-09-12T07:19:16;68.73;;;30.70;;
74124;SDS011;62475;52.192;5.396;2023-09-12T07:21:41;69.93;;;30.27;;
74124;SDS011;62475;52.192;5.396;2023-09-12T07:24:06;69.70;;;29.00;;
74124;SDS011;62475;52.192;5.396;2023-09-12T07:26:32;69.30;;;30.05;;
74124;SDS011;62475;52.192;5.396;2023-09-12T07:28:57;66.33;;;29.30;;
74124;SDS011;62475;52.192;5.396;2023-09-12T07:31:23;73.80;;;28.48;;
74124;SDS011;62475;52.192;5.396;2023-09-12T07:33:48;61.70;;;28.15;;
74124;SDS011;62475;52.192;5.396;2023-09-12T07:36:13;64.70;;;28.53;;
74124;SDS011;62475;52.192;5.396;2023-09-12T07:38:39;66.38;;;28.25;;
74124;SDS011;62475;52.192;5.396;2023-09-12T07:41:10;62.87;;;28.20;;
74124;SDS011;62475;52.192;5.396;2023-09-12T07:43:35;67.78;;;28.77;;
74124;SDS011;62475;52.192;5.396;2023-09-12T07:46:01;64.00;;;28.13;;
74124;SDS011;62475;52.192;5.396;2023-09-12T07:48:26;68.30;;;28.77;;
74124;SDS011;62475;52.192;5.396;2023-09-12T07:50:52;55.60;;;26.05;;
74124;SDS011;62475;52.192;5.396;2023-09-12T07:53:17;65.87;;;27.07;;
74124;SDS011;62475;52.192;5.396;2023-09-12T07:55:43;58.22;;;26.67;;
74124;SDS011;62475;52.192;5.396;2023-09-12T07:58:14;60.20;;;27.08;;
74124;SDS011;62475;52.192;5.396;2023-09-12T08:00:40;56.30;;;25.88;;
74124;SDS011;62475;52.192;5.396;2023-09-12T08:03:05;50.47;;;24.45;;
74124;SDS011;62475;52.192;5.396;2023-09-12T08:05:30;50.00;;;24.95;;
74124;SDS011;62475;52.192;5.396;2023-09-12T08:07:56;56.23;;;25.37;;
74124;SDS011;62475;52.192;5.396;2023-09-12T08:10:21;52.78;;;25.48;;
74124;SDS011;62475;52.192;5.396;2023-09-12T08:12:46;50.57;;;23.03;;
74124;SDS011;62475;52.192;5.396;2023-09-12T08:15:12;50.80;;;23.43;;
74124;SDS011;62475;52.192;5.396;2023-09-12T08:17:37;51.60;;;23.42;;
74124;SDS011;62475;52.192;5.396;2023-09-12T08:20:03;49.17;;;22.23;;
74124;SDS011;62475;52.192;5.396;2023-09-12T08:22:28;46.80;;;21.75;;
74124;SDS011;62475;52.192;5.396;2023-09-12T08:24:53;54.97;;;23.20;;
74124;SDS011;62475;52.192;5.396;2023-09-12T08:27:19;53.03;;;22.17;;
74124;SDS011;62475;52.192;5.396;2023-09-12T08:29:44;45.80;;;22.37;;
74124;SDS011;62475;52.192;5.396;2023-09-12T08:32:11;48.42;;;21.92;;
74124;SDS011;62475;52.192;5.396;2023-09-12T08:34:37;47.07;;;22.17;;
74124;SDS011;62475;52.192;5.396;2023-09-12T08:37:02;48.43;;;20.43;;
74124;SDS011;62475;52.192;5.396;2023-09-12T08:39:27;45.87;;;21.70;;
74124;SDS011;62475;52.192;5.396;2023-09-12T08:41:53;46.28;;;23.08;;
74124;SDS011;62475;52.192;5.396;2023-09-12T08:44:19;50.45;;;22.63;;
74124;SDS011;62475;52.192;5.396;2023-09-12T08:46:45;48.15;;;22.73;;
74124;SDS011;62475;52.192;5.396;2023-09-12T08:49:10;50.22;;;23.50;;
74124;SDS011;62475;52.192;5.396;2023-09-12T08:51:39;49.85;;;24.85;;
74124;SDS011;62475;52.192;5.396;2023-09-12T08:54:04;49.15;;;23.08;;
74124;SDS011;62475;52.192;5.396;2023-09-12T08:56:31;49.13;;;24.45;;
74124;SDS011;62475;52.192;5.396;2023-09-12T08:58:57;46.83;;;22.40;;
74124;SDS011;62475;52.192;5.396;2023-09-12T09:01:22;48.50;;;23.95;;
74124;SDS011;62475;52.192;5.396;2023-09-12T09:03:48;47.55;;;25.17;;
74124;SDS011;62475;52.192;5.396;2023-09-12T09:06:13;44.13;;;21.73;;
74124;SDS011;62475;52.192;5.396;2023-09-12T09:08:41;41.95;;;21.67;;
74124;SDS011;62475;52.192;5.396;2023-09-12T09:11:06;40.25;;;22.02;;
74124;SDS011;62475;52.192;5.396;2023-09-12T09:13:32;44.57;;;23.20;;
74124;SDS011;62475;52.192;5.396;2023-09-12T09:16:10;42.25;;;21.10;;
74124;SDS011;62475;52.192;5.396;2023-09-12T09:18:55;43.22;;;22.13;;
74124;SDS011;62475;52.192;5.396;2023-09-12T09:21:22;39.25;;;21.92;;
74124;SDS011;62475;52.192;5.396;2023-09-12T09:23:51;40.55;;;21.63;;
74124;SDS011;62475;52.192;5.396;2023-09-12T09:26:16;38.83;;;22.23;;
74124;SDS011;62475;52.192;5.396;2023-09-12T09:28:42;39.28;;;22.13;;
74124;SDS011;62475;52.192;5.396;2023-09-12T09:31:11;44.42;;;23.35;;
74124;SDS011;62475;52.192;5.396;2023-09-12T09:33:36;43.60;;;23.58;;
74124;SDS011;62475;52.192;5.396;2023-09-12T09:36:02;42.65;;;23.38;;
74124;SDS011;62475;52.192;5.396;2023-09-12T09:38:28;34.60;;;19.70;;
74124;SDS011;62475;52.192;5.396;2023-09-12T09:40:54;41.22;;;23.80;;
74124;SDS011;62475;52.192;5.396;2023-09-12T09:43:20;35.20;;;20.60;;
74124;SDS011;62475;52.192;5.396;2023-09-12T09:45:46;42.95;;;22.88;;
74124;SDS011;62475;52.192;5.396;2023-09-12T09:48:21;45.03;;;23.00;;
74124;SDS011;62475;52.192;5.396;2023-09-12T09:50:46;43.15;;;21.05;;
74124;SDS011;62475;52.192;5.396;2023-09-12T09:53:12;43.58;;;24.08;;
74124;SDS011;62475;52.192;5.396;2023-09-12T09:55:37;36.90;;;21.90;;
74124;SDS011;62475;52.192;5.396;2023-09-12T09:58:05;36.47;;;20.90;;
74124;SDS011;62475;52.192;5.396;2023-09-12T10:00:31;40.13;;;22.55;;
74124;SDS011;62475;52.192;5.396;2023-09-12T10:02:58;43.95;;;23.13;;
74124;SDS011;62475;52.192;5.396;2023-09-12T10:05:24;44.65;;;22.05;;
74124;SDS011;62475;52.192;5.396;2023-09-12T10:07:50;40.28;;;22.35;;
74124;SDS011;62475;52.192;5.396;2023-09-12T10:10:16;40.10;;;21.73;;
74124;SDS011;62475;52.192;5.396;2023-09-12T10:12:43;38.60;;;20.08;;
74124;SDS011;62475;52.192;5.396;2023-09-12T10:15:09;38.85;;;21.15;;
74124;SDS011;62475;52.192;5.396;2023-09-12T10:17:36;37.65;;;21.30;;
74124;SDS011;62475;52.192;5.396;2023-09-12T10:20:02;34.55;;;20.60;;
74124;SDS011;62475;52.192;5.396;2023-09-12T10:22:34;35.58;;;19.83;;
74124;SDS011;62475;52.192;5.396;2023-09-12T10:25:00;34.85;;;20.52;;
74124;SDS011;62475;52.192;5.396;2023-09-12T10:27:25;32.53;;;19.27;;
74124;SDS011;62475;52.192;5.396;2023-09-12T10:29:51;38.97;;;20.30;;
74124;SDS011;62475;52.192;5.396;2023-09-12T10:32:18;31.08;;;18.45;;
74124;SDS011;62475;52.192;5.396;2023-09-12T10:34:44;31.40;;;18.38;;
74124;SDS011;62475;52.192;5.396;2023-09-12T10:37:12;29.08;;;17.60;;
74124;SDS011;62475;52.192;5.396;2023-09-12T10:39:40;29.83;;;15.88;;
74124;SDS011;62475;52.192;5.396;2023-09-12T10:42:05;27.92;;;16.08;;
74124;SDS011;62475;52.192;5.396;2023-09-12T10:44:31;27.08;;;17.73;;
74124;SDS011;62475;52.192;5.396;2023-09-12T10:46:57;32.45;;;17.38;;
74124;SDS011;62475;52.192;5.396;2023-09-12T10:49:22;29.02;;;18.08;;
74124;SDS011;62475;52.192;5.396;2023-09-12T10:51:48;35.78;;;20.90;;
74124;SDS011;62475;52.192;5.396;2023-09-12T10:54:15;29.23;;;18.17;;
74124;SDS011;62475;52.192;5.396;2023-09-12T10:56:40;26.23;;;16.83;;
74124;SDS011;62475;52.192;5.396;2023-09-12T11:01:39;30.20;;;18.55;;
74124;SDS011;62475;52.192;5.396;2023-09-12T11:06:46;33.58;;;20.40;;
74124;SDS011;62475;52.192;5.396;2023-09-12T11:09:32;31.75;;;18.83;;
74124;SDS011;62475;52.192;5.396;2023-09-12T11:12:03;32.58;;;18.25;;
74124;SDS011;62475;52.192;5.396;2023-09-12T11:14:30;26.48;;;16.45;;
74124;SDS011;62475;52.192;5.396;2023-09-12T11:19:30;28.83;;;17.13;;
74124;SDS011;62475;52.192;5.396;2023-09-12T11:22:20;29.73;;;18.08;;
74124;SDS011;62475;52.192;5.396;2023-09-12T11:24:46;26.13;;;15.30;;
74124;SDS011;62475;52.192;5.396;2023-09-12T11:27:12;25.40;;;14.40;;
74124;SDS011;62475;52.192;5.396;2023-09-12T11:29:38;24.33;;;14.80;;
74124;SDS011;62475;52.192;5.396;2023-09-12T11:32:04;23.42;;;15.07;;
74124;SDS011;62475;52.192;5.396;2023-09-12T11:34:36;22.80;;;15.02;;
74124;SDS011;62475;52.192;5.396;2023-09-12T11:37:04;26.30;;;15.07;;
74124;SDS011;62475;52.192;5.396;2023-09-12T11:39:30;20.40;;;13.43;;
74124;SDS011;62475;52.192;5.396;2023-09-12T11:41:57;20.58;;;11.98;;
74124;SDS011;62475;52.192;5.396;2023-09-12T11:44:22;18.00;;;11.40;;
74124;SDS011;62475;52.192;5.396;2023-09-12T11:46:48;15.07;;;10.05;;
74124;SDS011;62475;52.192;5.396;2023-09-12T11:49:17;15.15;;;10.23;;
74124;SDS011;62475;52.192;5.396;2023-09-12T11:51:46;15.43;;;10.20;;
74124;SDS011;62475;52.192;5.396;2023-09-12T11:54:13;15.32;;;10.50;;
74124;SDS011;62475;52.192;5.396;2023-09-12T11:56:41;15.43;;;9.25;;
74124;SDS011;62475;52.192;5.396;2023-09-12T11:59:08;15.15;;;10.02;;
74124;SDS011;62475;52.192;5.396;2023-09-12T12:01:33;16.02;;;10.07;;
74124;SDS011;62475;52.192;5.396;2023-09-12T12:03:58;16.55;;;9.88;;
74124;SDS011;62475;52.192;5.396;2023-09-12T12:06:23;14.77;;;10.03;;
74124;SDS011;62475;52.192;5.396;2023-09-12T12:08:49;17.73;;;10.73;;
74124;SDS011;62475;52.192;5.396;2023-09-12T12:11:19;19.65;;;11.20;;
74124;SDS011;62475;52.192;5.396;2023-09-12T12:13:44;15.57;;;9.90;;
74124;SDS011;62475;52.192;5.396;2023-09-12T12:16:16;13.10;;;8.40;;
74124;SDS011;62475;52.192;5.396;2023-09-12T12:18:42;14.48;;;9.18;;
74124;SDS011;62475;52.192;5.396;2023-09-12T12:21:07;17.20;;;11.43;;
74124;SDS011;62475;52.192;5.396;2023-09-12T12:23:32;18.13;;;9.52;;
74124;SDS011;62475;52.192;5.396;2023-09-12T12:26:02;15.47;;;9.07;;
74124;SDS011;62475;52.192;5.396;2023-09-12T12:28:27;12.68;;;8.65;;
74124;SDS011;62475;52.192;5.396;2023-09-12T12:30:55;14.70;;;9.27;;
74124;SDS011;62475;52.192;5.396;2023-09-12T12:33:20;14.38;;;8.73;;
74124;SDS011;62475;52.192;5.396;2023-09-12T12:35:46;13.97;;;9.97;;
74124;SDS011;62475;52.192;5.396;2023-09-12T12:38:12;14.07;;;9.20;;
74124;SDS011;62475;52.192;5.396;2023-09-12T12:40:38;15.63;;;10.23;;
74124;SDS011;62475;52.192;5.396;2023-09-12T12:43:05;12.85;;;8.15;;
74124;SDS011;62475;52.192;5.396;2023-09-12T12:45:31;14.90;;;9.25;;
74124;SDS011;62475;52.192;5.396;2023-09-12T12:47:59;13.57;;;8.70;;
74124;SDS011;62475;52.192;5.396;2023-09-12T12:50:25;14.40;;;8.65;;
74124;SDS011;62475;52.192;5.396;2023-09-12T12:52:50;19.53;;;12.70;;
74124;SDS011;62475;52.192;5.396;2023-09-12T12:55:15;16.90;;;11.47;;
74124;SDS011;62475;52.192;5.396;2023-09-12T12:57:42;23.33;;;13.32;;
74124;SDS011;62475;52.192;5.396;2023-09-12T13:00:08;21.95;;;13.85;;
74124;SDS011;62475;52.192;5.396;2023-09-12T13:02:36;25.85;;;15.95;;
74124;SDS011;62475;52.192;5.396;2023-09-12T13:05:01;24.38;;;14.75;;
74124;SDS011;62475;52.192;5.396;2023-09-12T13:07:26;25.25;;;14.70;;
74124;SDS011;62475;52.192;5.396;2023-09-12T13:09:51;28.53;;;15.63;;
74124;SDS011;62475;52.192;5.396;2023-09-12T13:12:17;23.77;;;16.57;;
74124;SDS011;62475;52.192;5.396;2023-09-12T13:14:43;25.10;;;14.98;;
74124;SDS011;62475;52.192;5.396;2023-09-12T13:17:09;21.25;;;13.55;;
74124;SDS011;62475;52.192;5.396;2023-09-12T13:19:34;20.65;;;13.20;;
74124;SDS011;62475;52.192;5.396;2023-09-12T13:22:00;18.50;;;11.65;;
74124;SDS011;62475;52.192;5.396;2023-09-12T13:24:25;16.00;;;8.87;;
74124;SDS011;62475;52.192;5.396;2023-09-12T13:26:51;14.30;;;9.43;;
74124;SDS011;62475;52.192;5.396;2023-09-12T13:29:16;20.65;;;11.88;;
74124;SDS011;62475;52.192;5.396;2023-09-12T13:31:41;20.73;;;11.93;;
74124;SDS011;62475;52.192;5.396;2023-09-12T13:34:07;18.07;;;11.50;;
74124;SDS011;62475;52.192;5.396;2023-09-12T13:36:32;20.00;;;11.73;;
74124;SDS011;62475;52.192;5.396;2023-09-12T13:38:57;20.23;;;12.53;;
74124;SDS011;62475;52.192;5.396;2023-09-12T13:41:22;22.63;;;13.10;;
74124;SDS011;62475;52.192;5.396;2023-09-12T13:43:50;25.15;;;14.13;;
74124;SDS011;62475;52.192;5.396;2023-09-12T13:46:15;23.97;;;13.93;;
74124;SDS011;62475;52.192;5.396;2023-09-12T13:48:41;26.75;;;14.95;;
74124;SDS011;62475;52.192;5.396;2023-09-12T13:51:06;26.77;;;16.47;;
74124;SDS011;62475;52.192;5.396;2023-09-12T13:53:31;26.48;;;16.25;;
74124;SDS011;62475;52.192;5.396;2023-09-12T13:55:57;27.03;;;15.30;;
74124;SDS011;62475;52.192;5.396;2023-09-12T13:58:23;26.50;;;15.32;;
74124;SDS011;62475;52.192;5.396;2023-09-12T14:00:48;30.48;;;17.20;;
74124;SDS011;62475;52.192;5.396;2023-09-12T14:03:13;30.37;;;16.43;;
74124;SDS011;62475;52.192;5.396;2023-09-12T14:05:39;26.23;;;15.27;;
74124;SDS011;62475;52.192;5.396;2023-09-12T14:08:04;25.00;;;14.27;;
74124;SDS011;62475;52.192;5.396;2023-09-12T14:10:29;16.83;;;10.85;;
74124;SDS011;62475;52.192;5.396;2023-09-12T14:12:54;16.33;;;11.07;;
74124;SDS011;62475;52.192;5.396;2023-09-12T14:15:20;15.27;;;10.37;;
74124;SDS011;62475;52.192;5.396;2023-09-12T14:17:45;14.30;;;8.63;;
74124;SDS011;62475;52.192;5.396;2023-09-12T14:20:10;15.43;;;8.73;;
74124;SDS011;62475;52.192;5.396;2023-09-12T14:22:36;15.38;;;10.20;;
74124;SDS011;62475;52.192;5.396;2023-09-12T14:25:01;15.38;;;10.23;;
74124;SDS011;62475;52.192;5.396;2023-09-12T14:27:26;16.10;;;10.87;;